Newport News Williamsburg International Airport Newport News US
ICAO: KPHF
IATA: PHF
Category: Large
Scheduled Services: Yes

Elevation: 42 ft
TransAlt. 18000 ft.

Airport Communications:
NORFOLK APP:125.7
ATIS:128.65
CLNC DEL:121.65
CTAF:118.7
NORFOLK DEP:124.9
GND:121.9
LEESBURG RDO:122.65
TWR:124.9
UNICOM:122.95

KPHF Zoom In..

If Map Doesn't Load, Click Here

Runways:

(A) RW 02 length 6526 ft width 150 ft
LOC 109.30 / hdg 22

(B) RW 07 length 8003 ft width 150 ft
ILS 110.10 / hdg 67

(C) RW 20 length 6526 ft width 150 ft
LOC 109.30 / hdg 202

(D) RW 25 length 8003 ft width 150 ft
ILS 110.10 / hdg 247

Location; KPHF
Day. 26 / Time. 10.54 Zulu
* Altimeter: 30.03
* Temperature: 23° c. 73.4°f.
* Wind from: 000° Speed 00 kn.
Dewpoint: 23° c.
Visibility: 2 m.
Clouds: Overcast 900 ft.
Conditions: Mist.

KPHF 261054Z 00000KT 2 1/2SM BR OVC009 23/23 A3003 RMK AO2 SLP169 T02330228


Wind - Calm.

 
 
jpsmedia.com for Web Design worldairports.se 2018   terms of use